Time;durP1;ratioP1;P1;durP2;ratioP2;P2;SDS_P1;SDS_P2;PMS_P1;PMS_P2;Temp;Humidity;BMP_temperature;BMP_pressure;BME280_temperature;BME280_humidity;BME280_pressure;Samples;Min_cycle;Max_cycle;Signal;HPM_P1;HPM_P2
2021/01/02 00:01:08;;;;;;;21.20;13.15;;;;;;;;;;5052822;28;20294;-76
2021/01/02 00:03:48;;;;;;;24.88;14.38;;;;;;;;;;5051849;28;20626;-76
2021/01/02 00:06:20;;;;;;;24.08;14.50;;;;;;;;;;5060296;28;20201;-76
2021/01/02 00:08:48;;;;;;;19.45;14.05;;;;;;;;;;5068047;28;20534;-76
2021/01/02 00:11:22;;;;;;;19.48;13.43;;;;;;;;;;5058613;28;20209;-76
2021/01/02 00:14:01;;;;;;;22.17;15.30;;;;;;;;;;5049799;28;20215;-75
2021/01/02 00:16:43;;;;;;;24.13;14.05;;;;;;;;;;5049642;28;20803;-75
2021/01/02 00:19:19;;;;;;;25.48;16.20;;;;;;;;;;5052889;28;20255;-76
2021/01/02 00:21:49;;;;;;;24.15;15.05;;;;;;;;;;5051556;28;20281;-76
2021/01/02 00:24:31;;;;;;;21.08;13.90;;;;;;;;;;5051883;28;20241;-75
2021/01/02 00:27:12;;;;;;;23.63;14.60;;;;;;;;;;5055154;28;20628;-76
2021/01/02 00:29:54;;;;;;;19.25;13.88;;;;;;;;;;5066154;28;20297;-77
2021/01/02 00:32:23;;;;;;;19.92;13.98;;;;;;;;;;5071933;28;20271;-76
2021/01/02 00:35:05;;;;;;;19.95;13.50;;;;;;;;;;5060826;28;20566;-76
2021/01/02 00:37:35;;;;;;;24.98;16.58;;;;;;;;;;5073038;28;20216;-76
2021/01/02 00:40:05;;;;;;;25.85;16.52;;;;;;;;;;5071606;28;20771;-76
2021/01/02 00:42:32;;;;;;;23.33;14.43;;;;;;;;;;5065503;28;20207;-76
2021/01/02 00:45:00;;;;;;;21.92;14.70;;;;;;;;;;5055533;28;20348;-76
2021/01/02 00:47:27;;;;;;;21.65;13.63;;;;;;;;;;5053738;28;20205;-76
2021/01/02 00:49:55;;;;;;;20.10;13.75;;;;;;;;;;5059221;28;20198;-76
2021/01/02 00:52:29;;;;;;;23.48;15.48;;;;;;;;;;5068444;28;20594;-75
2021/01/02 00:55:07;;;;;;;24.27;14.80;;;;;;;;;;5072833;28;20267;-75
2021/01/02 00:57:46;;;;;;;25.52;14.43;;;;;;;;;;5062844;28;20195;-76
2021/01/02 01:00:14;;;;;;;26.67;16.27;;;;;;;;;;5053523;28;20233;-75
2021/01/02 01:02:57;;;;;;;23.88;15.50;;;;;;;;;;5058966;28;20209;-75
2021/01/02 01:05:24;;;;;;;20.02;14.40;;;;;;;;;;5066672;28;20290;-76
2021/01/02 01:07:53;;;;;;;24.00;14.82;;;;;;;;;;5055186;28;20194;-76
2021/01/02 01:10:21;;;;;;;25.60;15.38;;;;;;;;;;5053517;28;20203;-76
2021/01/02 01:12:54;;;;;;;25.67;15.50;;;;;;;;;;5060418;28;20247;-76
2021/01/02 01:15:21;;;;;;;24.23;15.20;;;;;;;;;;5070163;28;20225;-76
2021/01/02 01:17:58;;;;;;;26.08;13.98;;;;;;;;;;5053200;28;20646;-77
2021/01/02 01:20:26;;;;;;;23.33;15.35;;;;;;;;;;5052994;28;20209;-75
2021/01/02 01:23:00;;;;;;;21.15;14.23;;;;;;;;;;5053133;28;20200;-75
2021/01/02 01:25:35;;;;;;;23.90;15.95;;;;;;;;;;5054853;28;20199;-76
2021/01/02 01:28:05;;;;;;;23.85;14.55;;;;;;;;;;5055899;28;20194;-77
2021/01/02 01:30:36;;;;;;;25.05;15.70;;;;;;;;;;5053826;28;20293;-75
2021/01/02 01:33:04;;;;;;;23.75;15.90;;;;;;;;;;5054472;28;21009;-76
2021/01/02 01:35:31;;;;;;;23.85;15.15;;;;;;;;;;5064043;28;20353;-76
2021/01/02 01:37:59;;;;;;;26.73;16.23;;;;;;;;;;5068393;28;20593;-76
2021/01/02 01:40:27;;;;;;;22.73;15.18;;;;;;;;;;5052661;28;20209;-75
2021/01/02 01:43:03;;;;;;;24.27;15.68;;;;;;;;;;5049784;28;20206;-76
2021/01/02 01:45:45;;;;;;;24.98;15.30;;;;;;;;;;5051245;28;20195;-76
2021/01/02 01:48:13;;;;;;;23.30;15.32;;;;;;;;;;5053343;28;20194;-77
2021/01/02 01:50:44;;;;;;;23.05;16.25;;;;;;;;;;5054531;28;20203;-77
2021/01/02 01:53:17;;;;;;;25.88;15.18;;;;;;;;;;5055492;28;20221;-76
2021/01/02 01:55:49;;;;;;;24.35;14.77;;;;;;;;;;5054276;28;20223;-76
2021/01/02 01:58:18;;;;;;;24.35;15.38;;;;;;;;;;5065256;28;20198;-76
2021/01/02 02:00:45;;;;;;;24.08;14.65;;;;;;;;;;5069531;28;20740;-76
2021/01/02 02:03:20;;;;;;;24.90;14.93;;;;;;;;;;5072831;28;20229;-76
2021/01/02 02:05:50;;;;;;;22.15;14.60;;;;;;;;;;5058016;28;20197;-75
2021/01/02 02:08:17;;;;;;;24.02;15.32;;;;;;;;;;5051726;28;20286;-76
2021/01/02 02:10:46;;;;;;;21.33;13.95;;;;;;;;;;5066936;28;20198;-76
2021/01/02 02:13:14;;;;;;;23.30;15.50;;;;;;;;;;5053020;28;20261;-75
2021/01/02 02:15:47;;;;;;;24.35;14.52;;;;;;;;;;5054971;28;20215;-77
2021/01/02 02:18:19;;;;;;;26.50;15.95;;;;;;;;;;5052927;28;20233;-75
2021/01/02 02:20:47;;;;;;;17.90;13.02;;;;;;;;;;5065067;28;20233;-76
2021/01/02 02:23:14;;;;;;;22.90;14.07;;;;;;;;;;5070158;28;20214;-76
2021/01/02 02:25:47;;;;;;;26.50;16.40;;;;;;;;;;5064126;28;20645;-75
2021/01/02 02:28:28;;;;;;;22.45;14.07;;;;;;;;;;5050200;28;20290;-76
2021/01/02 02:30:56;;;;;;;22.30;14.00;;;;;;;;;;5051884;28;20678;-76
2021/01/02 02:33:25;;;;;;;24.00;13.90;;;;;;;;;;5055386;28;20230;-76
2021/01/02 02:35:54;;;;;;;25.30;15.93;;;;;;;;;;5053585;28;20276;-76
2021/01/02 02:38:22;;;;;;;22.35;14.95;;;;;;;;;;5053261;28;20205;-76
2021/01/02 02:40:49;;;;;;;20.65;13.68;;;;;;;;;;5053993;28;20612;-76
2021/01/02 02:43:16;;;;;;;22.88;15.30;;;;;;;;;;5066064;28;20229;-77
2021/01/02 02:45:43;;;;;;;20.63;13.95;;;;;;;;;;5069852;28;20217;-76
2021/01/02 02:48:12;;;;;;;20.42;13.48;;;;;;;;;;5061185;28;20368;-76
2021/01/02 02:50:41;;;;;;;20.77;13.55;;;;;;;;;;5050446;28;20203;-75
2021/01/02 02:53:10;;;;;;;23.95;14.15;;;;;;;;;;5050872;28;20317;-76
2021/01/02 02:55:37;;;;;;;21.17;13.52;;;;;;;;;;5066297;28;20350;-75
2021/01/02 02:58:04;;;;;;;22.10;13.00;;;;;;;;;;5066365;28;20252;-77
2021/01/02 03:00:31;;;;;;;18.67;13.38;;;;;;;;;;5050878;28;20225;-76
2021/01/02 03:02:58;;;;;;;20.08;13.40;;;;;;;;;;5050566;28;20236;-75
2021/01/02 03:05:25;;;;;;;21.05;13.27;;;;;;;;;;5051446;28;20201;-75
2021/01/02 03:07:53;;;;;;;21.35;13.95;;;;;;;;;;5057060;28;20203;-75
2021/01/02 03:10:20;;;;;;;18.13;12.10;;;;;;;;;;5053014;28;20270;-77
2021/01/02 03:12:48;;;;;;;18.25;12.57;;;;;;;;;;5052225;28;20333;-77
2021/01/02 03:15:15;;;;;;;23.17;12.77;;;;;;;;;;5053380;28;20253;-76
2021/01/02 03:17:43;;;;;;;18.70;12.18;;;;;;;;;;5059515;28;20224;-76
2021/01/02 03:20:13;;;;;;;18.92;13.30;;;;;;;;;;5065961;28;20200;-75
2021/01/02 03:22:40;;;;;;;19.63;13.52;;;;;;;;;;5054380;28;20238;-76
2021/01/02 03:25:09;;;;;;;23.75;14.80;;;;;;;;;;5049739;28;20233;-75
2021/01/02 03:27:35;;;;;;;21.85;14.60;;;;;;;;;;5049694;28;20240;-76
2021/01/02 03:30:02;;;;;;;20.60;14.13;;;;;;;;;;5048172;28;20203;-76
2021/01/02 03:32:29;;;;;;;18.55;13.75;;;;;;;;;;5052677;28;20205;-76
2021/01/02 03:34:56;;;;;;;25.02;14.88;;;;;;;;;;5051946;28;20280;-76
2021/01/02 03:37:24;;;;;;;18.13;12.10;;;;;;;;;;5052431;28;20221;-76
2021/01/02 03:39:51;;;;;;;22.77;12.88;;;;;;;;;;5057262;28;20213;-77
2021/01/02 03:42:18;;;;;;;21.70;12.68;;;;;;;;;;5066896;28;20221;-76
2021/01/02 03:44:45;;;;;;;19.73;13.77;;;;;;;;;;5049461;28;20222;-76
2021/01/02 03:47:12;;;;;;;17.52;11.80;;;;;;;;;;5050856;28;20599;-76
2021/01/02 03:49:39;;;;;;;18.52;13.65;;;;;;;;;;5049069;28;20614;-76
2021/01/02 03:52:06;;;;;;;19.30;13.68;;;;;;;;;;5050690;28;20201;-76
2021/01/02 03:54:33;;;;;;;18.70;12.13;;;;;;;;;;5050764;28;20264;-76
2021/01/02 03:57:00;;;;;;;17.98;11.95;;;;;;;;;;5052718;28;20310;-76
2021/01/02 03:59:28;;;;;;;19.17;11.93;;;;;;;;;;5051738;28;20280;-77
2021/01/02 04:01:55;;;;;;;19.45;12.98;;;;;;;;;;5057014;28;20609;-76
2021/01/02 04:04:22;;;;;;;19.55;13.15;;;;;;;;;;5066378;28;20577;-76
2021/01/02 04:06:50;;;;;;;21.33;13.50;;;;;;;;;;5060041;28;20665;-77
2021/01/02 04:09:17;;;;;;;18.15;13.32;;;;;;;;;;5050209;28;20202;-76
2021/01/02 04:11:45;;;;;;;16.92;11.95;;;;;;;;;;5049992;28;20555;-77
2021/01/02 04:14:11;;;;;;;20.17;12.70;;;;;;;;;;5050413;28;20324;-77
2021/01/02 04:16:40;;;;;;;21.00;14.60;;;;;;;;;;5050765;28;20223;-77
2021/01/02 04:19:07;;;;;;;20.25;14.55;;;;;;;;;;5051677;28;20195;-75
2021/01/02 04:21:34;;;;;;;19.83;13.32;;;;;;;;;;5051961;28;20201;-77
2021/01/02 04:24:01;;;;;;;20.10;13.70;;;;;;;;;;5054525;28;20264;-75
2021/01/02 04:26:28;;;;;;;23.17;14.10;;;;;;;;;;5066343;28;20195;-76
2021/01/02 04:28:55;;;;;;;19.83;13.52;;;;;;;;;;5066473;28;20649;-77
2021/01/02 04:31:23;;;;;;;18.27;12.90;;;;;;;;;;5069440;28;20208;-76
2021/01/02 04:33:51;;;;;;;23.48;14.50;;;;;;;;;;5055198;28;20291;-77
2021/01/02 04:36:18;;;;;;;21.65;14.65;;;;;;;;;;5049948;28;20223;-76
2021/01/02 04:38:45;;;;;;;20.90;13.63;;;;;;;;;;5050917;28;20214;-76
2021/01/02 04:41:14;;;;;;;21.90;15.25;;;;;;;;;;5051993;28;20663;-75
2021/01/02 04:43:42;;;;;;;20.58;13.65;;;;;;;;;;5050097;28;20584;-76
2021/01/02 04:46:09;;;;;;;24.65;12.95;;;;;;;;;;5053256;28;20240;-76
2021/01/02 04:48:36;;;;;;;18.10;13.10;;;;;;;;;;5067232;28;20194;-76
2021/01/02 04:51:04;;;;;;;24.70;13.60;;;;;;;;;;5055365;28;20660;-76
2021/01/02 04:53:31;;;;;;;22.00;13.63;;;;;;;;;;5050385;28;20306;-75
2021/01/02 04:56:00;;;;;;;22.80;14.40;;;;;;;;;;5049391;28;20223;-76
2021/01/02 04:58:27;;;;;;;20.23;13.55;;;;;;;;;;5049215;28;20622;-77
2021/01/02 05:00:55;;;;;;;23.50;13.43;;;;;;;;;;5051175;28;20213;-75
2021/01/02 05:03:21;;;;;;;20.92;13.18;;;;;;;;;;5051469;28;20254;-76
2021/01/02 05:05:50;;;;;;;23.40;13.63;;;;;;;;;;5051147;28;20191;-77
2021/01/02 05:08:18;;;;;;;17.90;12.43;;;;;;;;;;5050212;28;20203;-76
2021/01/02 05:10:55;;;;;;;25.10;15.20;;;;;;;;;;5067388;28;20286;-75
2021/01/02 05:13:28;;;;;;;18.27;12.80;;;;;;;;;;5067993;28;20312;-75
2021/01/02 05:15:55;;;;;;;20.17;13.07;;;;;;;;;;5056740;28;20253;-75
2021/01/02 05:18:22;;;;;;;19.98;12.80;;;;;;;;;;5051514;28;20267;-76
2021/01/02 05:20:49;;;;;;;20.17;12.20;;;;;;;;;;5052977;28;20195;-76
2021/01/02 05:23:16;;;;;;;25.27;15.02;;;;;;;;;;5054723;28;20225;-75
2021/01/02 05:25:44;;;;;;;21.90;13.30;;;;;;;;;;5054572;28;20552;-75
2021/01/02 05:28:18;;;;;;;22.40;13.23;;;;;;;;;;5054954;28;20625;-76
2021/01/02 05:30:45;;;;;;;21.20;12.60;;;;;;;;;;5055385;28;20220;-75
2021/01/02 05:33:12;;;;;;;22.55;12.50;;;;;;;;;;5070239;28;20216;-76
2021/01/02 05:35:40;;;;;;;20.77;13.40;;;;;;;;;;5063334;28;20226;-75
2021/01/02 05:38:11;;;;;;;24.80;12.95;;;;;;;;;;5053583;28;20277;-76
2021/01/02 05:40:39;;;;;;;17.88;12.70;;;;;;;;;;5052464;28;20194;-74
2021/01/02 05:43:06;;;;;;;20.33;12.50;;;;;;;;;;5051306;28;20313;-76
2021/01/02 05:45:33;;;;;;;22.85;13.02;;;;;;;;;;5052891;28;20203;-76
2021/01/02 05:48:12;;;;;;;18.35;12.63;;;;;;;;;;5054576;28;20199;-76
2021/01/02 05:50:42;;;;;;;23.42;14.38;;;;;;;;;;5052673;28;20528;-76
2021/01/02 05:53:17;;;;;;;21.48;13.10;;;;;;;;;;5062431;28;20219;-79
2021/01/02 05:55:50;;;;;;;22.77;13.65;;;;;;;;;;5068247;28;20213;-78
2021/01/02 05:58:18;;;;;;;24.02;14.32;;;;;;;;;;5071627;28;20728;-77
2021/01/02 06:00:46;;;;;;;19.13;12.52;;;;;;;;;;5062338;28;20195;-77
2021/01/02 06:03:27;;;;;;;22.30;13.63;;;;;;;;;;5052244;28;20215;-77
2021/01/02 06:05:58;;;;;;;20.00;13.32;;;;;;;;;;5055275;28;20202;-77
2021/01/02 06:08:28;;;;;;;24.45;12.05;;;;;;;;;;5074631;28;20224;-77
2021/01/02 06:10:56;;;;;;;18.45;12.13;;;;;;;;;;5063907;28;20217;-78
2021/01/02 06:13:25;;;;;;;22.50;12.93;;;;;;;;;;5054125;28;20240;-76
2021/01/02 06:15:54;;;;;;;21.17;12.68;;;;;;;;;;5057569;28;20675;-76
2021/01/02 06:18:21;;;;;;;23.80;13.45;;;;;;;;;;5068356;28;20358;-77
2021/01/02 06:20:48;;;;;;;21.05;12.32;;;;;;;;;;5071607;28;20228;-77
2021/01/02 06:23:18;;;;;;;19.73;11.18;;;;;;;;;;5064908;28;20625;-77
2021/01/02 06:25:45;;;;;;;24.30;13.20;;;;;;;;;;5051904;28;20191;-77
2021/01/02 06:28:11;;;;;;;21.00;12.13;;;;;;;;;;5052228;28;20199;-77
2021/01/02 06:30:39;;;;;;;21.10;12.55;;;;;;;;;;5054192;28;20199;-76
2021/01/02 06:33:06;;;;;;;18.58;12.68;;;;;;;;;;5052280;28;20603;-77
2021/01/02 06:35:38;;;;;;;21.88;12.95;;;;;;;;;;5053383;28;20206;-76
2021/01/02 06:38:10;;;;;;;19.55;12.95;;;;;;;;;;5058119;28;20196;-76
2021/01/02 06:40:38;;;;;;;23.38;12.60;;;;;;;;;;5068387;28;20190;-75
2021/01/02 06:43:05;;;;;;;19.58;13.05;;;;;;;;;;5066018;28;20222;-78
2021/01/02 06:45:47;;;;;;;20.63;11.63;;;;;;;;;;5071424;28;20652;-90
2021/01/02 06:48:30;;;;;;;18.92;12.55;;;;;;;;;;5059866;28;20307;-89
2021/01/02 06:51:00;;;;;;;22.08;12.57;;;;;;;;;;5051221;28;20265;-82
2021/01/02 06:53:30;;;;;;;17.15;11.02;;;;;;;;;;5064794;28;20620;-77
2021/01/02 06:55:58;;;;;;;17.20;11.80;;;;;;;;;;5069776;28;20627;-76
2021/01/02 06:58:26;;;;;;;18.17;10.88;;;;;;;;;;5067233;28;20207;-78
2021/01/02 07:00:52;;;;;;;23.65;13.43;;;;;;;;;;5049547;28;20201;-77
2021/01/02 07:03:34;;;;;;;17.33;11.65;;;;;;;;;;5049971;28;20573;-76
2021/01/02 07:06:02;;;;;;;20.25;13.18;;;;;;;;;;5060788;28;20202;-80
2021/01/02 07:08:40;;;;;;;22.38;13.68;;;;;;;;;;5066020;28;20197;-77
2021/01/02 07:11:22;;;;;;;23.25;13.45;;;;;;;;;;5055207;28;20211;-78
2021/01/02 07:13:49;;;;;;;22.73;12.68;;;;;;;;;;5049828;28;20758;-77
2021/01/02 07:16:30;;;;;;;18.42;12.30;;;;;;;;;;5050690;28;20215;-77
2021/01/02 07:18:57;;;;;;;21.40;12.63;;;;;;;;;;5062444;28;20216;-76
2021/01/02 07:21:39;;;;;;;20.13;12.55;;;;;;;;;;5065625;28;20293;-76
2021/01/02 07:24:20;;;;;;;22.52;13.35;;;;;;;;;;5067843;28;20317;-78
2021/01/02 07:26:48;;;;;;;19.33;11.90;;;;;;;;;;5066912;28;20201;-78
2021/01/02 07:29:19;;;;;;;19.80;13.00;;;;;;;;;;5070539;28;20201;-78
2021/01/02 07:31:45;;;;;;;21.77;12.68;;;;;;;;;;5049603;28;20222;-76
2021/01/02 07:34:20;;;;;;;18.67;11.32;;;;;;;;;;5064126;28;20226;-77
2021/01/02 07:36:47;;;;;;;16.80;11.50;;;;;;;;;;5066757;28;20213;-76
2021/01/02 07:39:14;;;;;;;18.77;12.45;;;;;;;;;;5068164;28;20198;-76
2021/01/02 07:41:41;;;;;;;18.92;11.45;;;;;;;;;;5054509;28;20575;-77
2021/01/02 07:44:08;;;;;;;22.27;12.48;;;;;;;;;;5050141;28;20225;-77
2021/01/02 07:46:46;;;;;;;19.23;12.55;;;;;;;;;;5054076;28;20277;-76
2021/01/02 07:49:17;;;;;;;20.63;12.00;;;;;;;;;;5068028;28;20194;-78
2021/01/02 07:51:47;;;;;;;22.52;13.77;;;;;;;;;;5062761;28;20202;-79
2021/01/02 07:54:14;;;;;;;20.05;13.10;;;;;;;;;;5051111;28;20568;-78
2021/01/02 07:56:41;;;;;;;23.08;12.13;;;;;;;;;;5048674;28;20600;-77
2021/01/02 07:59:23;;;;;;;20.40;12.10;;;;;;;;;;5046044;28;20285;-76
2021/01/02 08:01:51;;;;;;;18.23;11.00;;;;;;;;;;5053367;28;20210;-76
2021/01/02 08:04:18;;;;;;;22.35;12.93;;;;;;;;;;5053544;28;20218;-75
2021/01/02 08:06:46;;;;;;;23.35;14.05;;;;;;;;;;5047423;28;20528;-78
2021/01/02 08:09:13;;;;;;;21.98;13.55;;;;;;;;;;5048137;28;20294;-77
2021/01/02 08:11:47;;;;;;;23.55;13.32;;;;;;;;;;5047294;28;20240;-77
2021/01/02 08:14:14;;;;;;;24.75;13.05;;;;;;;;;;5047181;28;20222;-78
2021/01/02 08:16:41;;;;;;;22.42;13.32;;;;;;;;;;5050985;28;20617;-77
2021/01/02 08:19:09;;;;;;;19.92;12.85;;;;;;;;;;5051808;28;20231;-78
2021/01/02 08:21:39;;;;;;;26.45;15.55;;;;;;;;;;5049107;28;20221;-77
2021/01/02 08:24:06;;;;;;;25.85;15.20;;;;;;;;;;5051759;28;20222;-77
2021/01/02 08:26:33;;;;;;;26.83;15.27;;;;;;;;;;5053731;28;20187;-78
2021/01/02 08:29:01;;;;;;;23.55;13.15;;;;;;;;;;5049743;28;20205;-77
2021/01/02 08:31:29;;;;;;;23.95;14.45;;;;;;;;;;5047083;28;20568;-77
2021/01/02 08:33:57;;;;;;;27.83;16.30;;;;;;;;;;5046695;28;20240;-76
2021/01/02 08:36:24;;;;;;;25.45;13.70;;;;;;;;;;5045617;28;20247;-77
2021/01/02 08:38:59;;;;;;;21.98;14.20;;;;;;;;;;5047046;28;20678;-76
2021/01/02 08:41:27;;;;;;;27.88;15.07;;;;;;;;;;5048992;28;20201;-77
2021/01/02 08:43:55;;;;;;;22.85;14.38;;;;;;;;;;5046442;28;20219;-77
2021/01/02 08:46:23;;;;;;;29.35;14.48;;;;;;;;;;5050504;28;20199;-78
2021/01/02 08:48:51;;;;;;;24.77;14.77;;;;;;;;;;5061003;28;20271;-76
2021/01/02 08:51:26;;;;;;;27.75;15.73;;;;;;;;;;5066472;28;20233;-76
2021/01/02 08:53:53;;;;;;;22.92;14.80;;;;;;;;;;5071241;28;20738;-78
2021/01/02 08:56:24;;;;;;;20.27;13.38;;;;;;;;;;5060584;28;20215;-77
2021/01/02 08:58:51;;;;;;;23.80;12.55;;;;;;;;;;5062166;28;20731;-77
2021/01/02 09:01:18;;;;;;;25.33;15.02;;;;;;;;;;5062419;28;20286;-79
2021/01/02 09:03:45;;;;;;;20.50;13.73;;;;;;;;;;5075168;28;20310;-76
2021/01/02 09:06:21;;;;;;;27.02;15.07;;;;;;;;;;5062719;28;20291;-77
2021/01/02 09:09:00;;;;;;;26.90;14.93;;;;;;;;;;5060057;28;20562;-79
2021/01/02 09:11:27;;;;;;;25.20;14.95;;;;;;;;;;5069895;28;20545;-76
2021/01/02 09:14:09;;;;;;;26.90;14.85;;;;;;;;;;5058447;28;20215;-77
2021/01/02 09:16:36;;;;;;;30.80;17.13;;;;;;;;;;5051458;28;20233;-76
2021/01/02 09:19:02;;;;;;;25.25;14.35;;;;;;;;;;5065676;28;20202;-79
2021/01/02 09:21:29;;;;;;;27.40;14.05;;;;;;;;;;5059472;28;20222;-80
2021/01/02 09:23:56;;;;;;;26.98;16.48;;;;;;;;;;5070282;28;20271;-76
2021/01/02 09:26:26;;;;;;;27.98;14.88;;;;;;;;;;5060957;28;20248;-77
2021/01/02 09:28:53;;;;;;;24.38;14.38;;;;;;;;;;5054002;28;20202;-80
2021/01/02 09:31:20;;;;;;;22.42;14.75;;;;;;;;;;5053083;28;20203;-79
2021/01/02 09:33:48;;;;;;;24.10;15.30;;;;;;;;;;5053458;28;20310;-78
2021/01/02 09:36:15;;;;;;;25.52;14.40;;;;;;;;;;5072877;28;20225;-77
2021/01/02 09:38:42;;;;;;;27.48;15.90;;;;;;;;;;5074225;28;20220;-77
2021/01/02 09:41:11;;;;;;;24.95;14.52;;;;;;;;;;5074676;28;20196;-80
2021/01/02 09:43:38;;;;;;;25.45;14.60;;;;;;;;;;5069719;28;20210;-78
2021/01/02 09:46:05;;;;;;;27.00;15.35;;;;;;;;;;5070570;28;20293;-80
2021/01/02 09:48:32;;;;;;;22.25;13.68;;;;;;;;;;5059483;28;20289;-78
2021/01/02 09:50:58;;;;;;;24.70;12.98;;;;;;;;;;5053005;28;20213;-77
2021/01/02 09:53:25;;;;;;;23.25;13.27;;;;;;;;;;5053203;28;20309;-78
2021/01/02 09:55:52;;;;;;;24.02;14.30;;;;;;;;;;5053480;28;20198;-80
2021/01/02 09:58:20;;;;;;;23.70;14.93;;;;;;;;;;5058969;28;20281;-77
2021/01/02 10:00:46;;;;;;;25.25;13.35;;;;;;;;;;5066813;28;20267;-79
2021/01/02 10:03:13;;;;;;;20.67;13.45;;;;;;;;;;5052816;28;20223;-81
2021/01/02 10:05:40;;;;;;;23.35;12.75;;;;;;;;;;5064908;28;20203;-82
2021/01/02 10:08:07;;;;;;;20.88;13.70;;;;;;;;;;5070394;28;20187;-78
2021/01/02 10:10:34;;;;;;;16.45;12.05;;;;;;;;;;5072291;28;20814;-82
2021/01/02 10:13:00;;;;;;;22.65;12.88;;;;;;;;;;5055131;28;20210;-79
2021/01/02 10:15:29;;;;;;;21.33;11.13;;;;;;;;;;5050967;28;20197;-80
2021/01/02 10:17:56;;;;;;;22.73;13.30;;;;;;;;;;5052468;28;20218;-79
2021/01/02 10:20:23;;;;;;;22.35;13.75;;;;;;;;;;5069941;28;20252;-77
2021/01/02 10:22:50;;;;;;;20.00;12.65;;;;;;;;;;5069702;28;20696;-81
2021/01/02 10:25:17;;;;;;;18.63;11.98;;;;;;;;;;5070249;28;20611;-80
2021/01/02 10:27:43;;;;;;;21.58;13.68;;;;;;;;;;5053915;28;20485;-81
2021/01/02 10:30:12;;;;;;;16.83;10.82;;;;;;;;;;5051795;28;20203;-81
2021/01/02 10:32:42;;;;;;;19.00;13.05;;;;;;;;;;5053288;28;20244;-76
2021/01/02 10:35:10;;;;;;;19.92;14.35;;;;;;;;;;5068023;28;20197;-80
2021/01/02 10:37:37;;;;;;;21.33;13.63;;;;;;;;;;5063361;28;20230;-81
2021/01/02 10:40:05;;;;;;;26.50;14.88;;;;;;;;;;5051620;28;20201;-82
2021/01/02 10:42:33;;;;;;;19.55;13.38;;;;;;;;;;5051108;28;20719;-79
2021/01/02 10:45:01;;;;;;;24.15;15.30;;;;;;;;;;5049801;28;20207;-79
2021/01/02 10:47:29;;;;;;;24.20;14.38;;;;;;;;;;5052217;28;20661;-84
2021/01/02 10:49:56;;;;;;;24.75;14.77;;;;;;;;;;5051380;28;20197;-80
2021/01/02 10:52:24;;;;;;;20.50;13.57;;;;;;;;;;5053366;28;20609;-77
2021/01/02 10:54:52;;;;;;;19.23;12.27;;;;;;;;;;5052646;28;20211;-77
2021/01/02 10:57:19;;;;;;;20.20;12.82;;;;;;;;;;5063073;28;20267;-76
2021/01/02 10:59:48;;;;;;;20.80;14.63;;;;;;;;;;5062400;28;20217;-76
2021/01/02 11:02:16;;;;;;;20.85;14.23;;;;;;;;;;5050686;28;20302;-76
2021/01/02 11:04:43;;;;;;;23.05;13.70;;;;;;;;;;5049522;28;20723;-76
2021/01/02 11:07:11;;;;;;;20.80;13.88;;;;;;;;;;5050215;28;20197;-75
2021/01/02 11:09:38;;;;;;;21.63;13.95;;;;;;;;;;5055395;28;20695;-76
2021/01/02 11:12:05;;;;;;;22.80;14.27;;;;;;;;;;5056438;28;20657;-76
2021/01/02 11:14:32;;;;;;;22.88;14.68;;;;;;;;;;5052679;28;20229;-76
2021/01/02 11:16:59;;;;;;;21.02;13.63;;;;;;;;;;5051555;28;20288;-77
2021/01/02 11:19:27;;;;;;;21.00;13.23;;;;;;;;;;5064769;28;20196;-75
2021/01/02 11:21:55;;;;;;;21.33;14.88;;;;;;;;;;5067708;28;20186;-77
2021/01/02 11:24:23;;;;;;;19.55;13.48;;;;;;;;;;5070322;28;20308;-75
2021/01/02 11:26:51;;;;;;;20.15;13.68;;;;;;;;;;5070461;28;20619;-74
2021/01/02 11:29:19;;;;;;;22.50;13.90;;;;;;;;;;5063389;28;20225;-79
2021/01/02 11:31:46;;;;;;;18.85;12.68;;;;;;;;;;5070291;28;20194;-76
2021/01/02 11:34:13;;;;;;;19.50;12.90;;;;;;;;;;5072420;28;20228;-77
2021/01/02 11:36:41;;;;;;;21.88;14.32;;;;;;;;;;5072742;28;20646;-78
2021/01/02 11:39:08;;;;;;;19.65;13.15;;;;;;;;;;5071330;28;20198;-77
2021/01/02 11:41:37;;;;;;;19.08;13.25;;;;;;;;;;5067783;28;20209;-76
2021/01/02 11:44:05;;;;;;;21.25;14.30;;;;;;;;;;5068752;28;20351;-77
2021/01/02 11:46:32;;;;;;;18.50;12.63;;;;;;;;;;5068895;28;20727;-79
2021/01/02 11:48:59;;;;;;;18.48;12.18;;;;;;;;;;5068716;28;20307;-77
2021/01/02 11:51:26;;;;;;;21.05;13.52;;;;;;;;;;5059169;28;20272;-77
2021/01/02 11:53:53;;;;;;;25.25;14.02;;;;;;;;;;5060728;28;20224;-78
2021/01/02 11:56:22;;;;;;;22.20;13.00;;;;;;;;;;5068857;28;20222;-76
2021/01/02 11:58:54;;;;;;;24.48;13.77;;;;;;;;;;5064648;28;20203;-76
2021/01/02 12:01:21;;;;;;;19.35;12.52;;;;;;;;;;5065209;28;20617;-76
2021/01/02 12:03:48;;;;;;;22.08;12.93;;;;;;;;;;5067222;28;20218;-77
2021/01/02 12:06:19;;;;;;;19.10;12.15;;;;;;;;;;5067186;28;20290;-78
2021/01/02 12:08:45;;;;;;;21.50;12.98;;;;;;;;;;5066945;28;20234;-75
2021/01/02 12:11:12;;;;;;;19.38;12.95;;;;;;;;;;5068086;28;20228;-77
2021/01/02 12:13:39;;;;;;;19.02;12.82;;;;;;;;;;5069062;28;20604;-76
2021/01/02 12:16:07;;;;;;;19.77;11.70;;;;;;;;;;5068931;28;20198;-78
2021/01/02 12:18:34;;;;;;;22.50;14.07;;;;;;;;;;5069059;28;20198;-78
2021/01/02 12:21:01;;;;;;;17.60;12.13;;;;;;;;;;5064093;28;20295;-82
2021/01/02 12:23:28;;;;;;;19.40;12.75;;;;;;;;;;5065471;28;20441;-78
2021/01/02 12:25:56;;;;;;;16.92;10.73;;;;;;;;;;5067333;28;20728;-79
2021/01/02 12:28:22;;;;;;;15.23;10.57;;;;;;;;;;5069790;28;20202;-79
2021/01/02 12:30:49;;;;;;;16.45;10.82;;;;;;;;;;5071323;28;20229;-78
2021/01/02 12:33:17;;;;;;;16.70;10.82;;;;;;;;;;5071688;28;20296;-78
2021/01/02 12:35:44;;;;;;;15.32;12.02;;;;;;;;;;5072955;28;20215;-77
2021/01/02 12:41:07;;;;;;;16.55;12.10;;;;;;;;;;5071806;28;20608;-76
2021/01/02 12:43:33;;;;;;;15.68;11.70;;;;;;;;;;5068001;28;20623;-77
2021/01/02 12:46:00;;;;;;;16.70;11.68;;;;;;;;;;5069303;28;20204;-79
2021/01/02 12:48:28;;;;;;;15.52;10.65;;;;;;;;;;5054109;28;20257;-77
2021/01/02 12:50:55;;;;;;;15.98;11.55;;;;;;;;;;5070832;28;20204;-77
2021/01/02 12:53:22;;;;;;;20.60;10.45;;;;;;;;;;5072834;28;20226;-78
2021/01/02 12:55:49;;;;;;;14.50;9.77;;;;;;;;;;5075073;28;20206;-78
2021/01/02 12:58:16;;;;;;;16.52;10.60;;;;;;;;;;5075642;28;20218;-76
2021/01/02 13:00:43;;;;;;;17.25;11.80;;;;;;;;;;5075554;28;20230;-76
2021/01/02 13:03:10;;;;;;;18.65;12.27;;;;;;;;;;5075395;28;20691;-78
2021/01/02 13:05:37;;;;;;;17.13;11.35;;;;;;;;;;5070917;28;20202;-77
2021/01/02 13:08:05;;;;;;;17.08;10.98;;;;;;;;;;5071909;28;20204;-76
2021/01/02 13:10:34;;;;;;;17.90;12.10;;;;;;;;;;5073300;28;20206;-77
2021/01/02 13:13:00;;;;;;;18.83;13.25;;;;;;;;;;5072974;28;20218;-78
2021/01/02 13:15:27;;;;;;;22.50;14.63;;;;;;;;;;5073139;28;20198;-78
2021/01/02 13:17:56;;;;;;;20.58;13.60;;;;;;;;;;5074321;28;20306;-77
2021/01/02 13:20:22;;;;;;;20.77;14.02;;;;;;;;;;5075333;28;20209;-78
2021/01/02 13:22:50;;;;;;;22.58;14.73;;;;;;;;;;5075091;28;20194;-77
2021/01/02 13:25:17;;;;;;;22.83;15.07;;;;;;;;;;5074973;28;20593;-76
2021/01/02 13:27:44;;;;;;;22.85;15.15;;;;;;;;;;5070516;28;20568;-78
2021/01/02 13:30:17;;;;;;;21.13;14.40;;;;;;;;;;5071625;28;20207;-79
2021/01/02 13:32:44;;;;;;;20.08;14.68;;;;;;;;;;5073443;28;20225;-78
2021/01/02 13:35:12;;;;;;;21.75;13.90;;;;;;;;;;5073061;28;20204;-77
2021/01/02 13:37:39;;;;;;;28.23;17.35;;;;;;;;;;5073320;28;20249;-77
2021/01/02 13:40:08;;;;;;;23.00;16.55;;;;;;;;;;5073974;28;20389;-77
2021/01/02 13:45:31;;;;;;;26.83;16.52;;;;;;;;;;5074601;28;20251;-76
2021/01/02 13:47:57;;;;;;;24.55;15.52;;;;;;;;;;5073638;28;20263;-76
2021/01/02 13:50:25;;;;;;;23.50;15.50;;;;;;;;;;5070154;28;20561;-75
2021/01/02 13:52:52;;;;;;;21.27;16.00;;;;;;;;;;5063691;28;20249;-77
2021/01/02 13:55:21;;;;;;;23.65;14.82;;;;;;;;;;5052456;28;20230;-78
2021/01/02 13:57:47;;;;;;;20.92;13.93;;;;;;;;;;5052141;28;20211;-78
2021/01/02 14:00:15;;;;;;;19.25;13.57;;;;;;;;;;5052556;28;20321;-77
2021/01/02 14:02:42;;;;;;;20.02;13.38;;;;;;;;;;5053811;28;20187;-76
2021/01/02 14:05:10;;;;;;;23.45;14.43;;;;;;;;;;5054412;28;20217;-77
2021/01/02 14:07:37;;;;;;;21.33;13.77;;;;;;;;;;5053883;28;20194;-75
2021/01/02 14:10:04;;;;;;;21.30;13.60;;;;;;;;;;5055732;28;20203;-76
2021/01/02 14:12:32;;;;;;;19.98;13.35;;;;;;;;;;5069157;28;20195;-79
2021/01/02 14:14:58;;;;;;;25.90;13.43;;;;;;;;;;5070872;28;20621;-77
2021/01/02 14:17:25;;;;;;;24.17;14.20;;;;;;;;;;5065849;28;20564;-75
2021/01/02 14:19:52;;;;;;;21.25;13.82;;;;;;;;;;5055130;28;20669;-76
2021/01/02 14:22:19;;;;;;;20.60;13.27;;;;;;;;;;5072382;28;20194;-76
2021/01/02 14:24:47;;;;;;;20.60;12.85;;;;;;;;;;5072750;28;20675;-77
2021/01/02 14:27:14;;;;;;;17.95;13.05;;;;;;;;;;5074008;28;20194;-77
2021/01/02 14:29:42;;;;;;;20.55;14.80;;;;;;;;;;5073771;28;20209;-78
2021/01/02 14:32:08;;;;;;;21.42;14.05;;;;;;;;;;5073732;28;20730;-77